createdAt,value
2022-11-18T00:01:08.422Z,6.71
2022-11-18T00:03:56.098Z,6.63
2022-11-18T00:06:43.901Z,6.70
2022-11-18T00:09:31.542Z,6.70
2022-11-18T00:12:37.493Z,6.77
2022-11-18T00:15:31.474Z,6.74
2022-11-18T00:18:19.493Z,6.82
2022-11-18T00:21:11.122Z,6.80
2022-11-18T00:23:58.779Z,6.74
2022-11-18T00:26:46.414Z,6.74
2022-11-18T00:29:34.136Z,6.74
2022-11-18T00:32:21.736Z,6.60
2022-11-18T00:35:09.684Z,6.70
2022-11-18T00:37:57.398Z,6.56
2022-11-18T00:40:45.154Z,6.58
2022-11-18T00:43:33.736Z,6.54
2022-11-18T00:46:21.460Z,6.52
2022-11-18T00:49:10.365Z,6.47
2022-11-18T00:51:58.068Z,6.49
2022-11-18T00:54:45.660Z,6.44
2022-11-18T00:57:33.450Z,6.48
2022-11-18T01:00:21.156Z,6.45
2022-11-18T01:03:10.487Z,6.43
2022-11-18T01:05:58.163Z,6.43
2022-11-18T01:08:45.932Z,6.44
2022-11-18T01:11:51.703Z,6.34
2022-11-18T01:14:39.416Z,6.33
2022-11-18T01:17:31.227Z,6.34
2022-11-18T01:20:18.986Z,6.21
2022-11-18T01:23:06.601Z,6.31
2022-11-18T01:25:55.438Z,6.27
2022-11-18T01:28:43.439Z,6.37
2022-11-18T01:31:31.103Z,6.49
2022-11-18T01:34:18.855Z,6.38
2022-11-18T01:37:06.616Z,6.26
2022-11-18T01:39:54.363Z,6.36
2022-11-18T01:42:42.054Z,6.28
2022-11-18T01:45:29.670Z,6.29
2022-11-18T01:48:22.973Z,6.22
2022-11-18T01:51:24.843Z,6.17
2022-11-18T01:54:19.528Z,6.11
2022-11-18T01:57:15.077Z,6.08
2022-11-18T02:00:06.448Z,6.04
2022-11-18T02:02:54.934Z,6.08
2022-11-18T02:05:46.815Z,5.92
2022-11-18T02:08:37.749Z,5.98
2022-11-18T02:11:43.856Z,6.13
2022-11-18T02:14:35.511Z,6.00
2022-11-18T02:17:49.194Z,6.04
2022-11-18T02:20:42.315Z,5.80
2022-11-18T02:24:07.612Z,5.80
2022-11-18T02:27:22.791Z,5.77
2022-11-18T02:30:13.957Z,5.74
2022-11-18T02:33:17.685Z,5.70
2022-11-18T02:36:22.227Z,5.67
2022-11-18T02:39:20.371Z,5.83
2022-11-18T02:42:11.387Z,5.74
2022-11-18T02:45:06.185Z,5.62
2022-11-18T02:47:57.776Z,5.63
2022-11-18T02:50:48.257Z,5.59
2022-11-18T02:53:38.592Z,5.55
2022-11-18T02:56:27.762Z,5.54
2022-11-18T02:59:19.726Z,5.46
2022-11-18T03:02:07.661Z,5.33
2022-11-18T03:04:58.716Z,5.35
2022-11-18T03:07:51.892Z,5.35
2022-11-18T03:11:12.921Z,5.25
2022-11-18T03:14:15.194Z,5.19
2022-11-18T03:17:10.773Z,5.08
2022-11-18T03:20:28.201Z,5.22
2022-11-18T03:23:28.274Z,5.10
2022-11-18T03:26:29.533Z,5.08
2022-11-18T03:29:33.155Z,5.05
2022-11-18T03:32:27.364Z,5.17
2022-11-18T03:35:25.121Z,5.05
2022-11-18T03:38:19.199Z,5.05
2022-11-18T03:41:10.621Z,5.03
2022-11-18T03:44:04.938Z,4.89
2022-11-18T03:47:02.627Z,5.03
2022-11-18T03:50:06.237Z,5.08
2022-11-18T03:52:55.499Z,5.06
2022-11-18T03:55:49.294Z,5.05
2022-11-18T03:59:04.322Z,4.97
2022-11-18T04:02:13.607Z,4.90
2022-11-18T04:05:04.369Z,4.82
2022-11-18T04:07:56.046Z,4.82
2022-11-18T04:11:00.952Z,4.92
2022-11-18T04:13:48.769Z,4.86
2022-11-18T04:16:42.437Z,4.83
2022-11-18T04:19:30.077Z,4.70
2022-11-18T04:22:19.483Z,4.80
2022-11-18T04:25:07.367Z,4.80
2022-11-18T04:27:55.021Z,4.80
2022-11-18T04:30:42.660Z,4.62
2022-11-18T04:33:30.353Z,4.86
2022-11-18T04:36:18.017Z,4.83
2022-11-18T04:39:06.164Z,4.76
2022-11-18T04:41:56.363Z,4.80
2022-11-18T04:44:44.163Z,4.82
2022-11-18T04:47:34.467Z,4.83
2022-11-18T04:50:22.278Z,4.75
2022-11-18T04:53:10.146Z,4.75
2022-11-18T04:56:04.207Z,4.72
2022-11-18T04:58:51.932Z,4.72
2022-11-18T05:01:40.117Z,4.76
2022-11-18T05:04:32.913Z,4.69
2022-11-18T05:07:21.238Z,4.74
2022-11-18T05:10:09.562Z,4.70
2022-11-18T05:12:57.279Z,4.64
2022-11-18T05:15:44.953Z,4.63
2022-11-18T05:18:32.740Z,4.57
2022-11-18T05:21:20.460Z,4.56
2022-11-18T05:24:08.519Z,4.58
2022-11-18T05:26:56.216Z,4.78
2022-11-18T05:29:44.232Z,4.78
2022-11-18T05:32:31.826Z,4.75
2022-11-18T05:35:19.529Z,4.78
2022-11-18T05:38:07.080Z,4.79
2022-11-18T05:40:54.781Z,4.69
2022-11-18T05:43:42.326Z,4.77
2022-11-18T05:46:31.771Z,4.86
2022-11-18T05:49:20.637Z,4.96
2022-11-18T05:52:08.587Z,4.86
2022-11-18T05:54:56.255Z,4.98
2022-11-18T05:57:43.982Z,5.02
2022-11-18T06:00:32.397Z,5.10
2022-11-18T06:03:29.306Z,5.09
2022-11-18T06:06:23.146Z,5.24
2022-11-18T06:09:11.606Z,5.32
2022-11-18T06:12:02.421Z,5.21
2022-11-18T06:14:55.359Z,5.35
2022-11-18T06:18:00.720Z,5.56
2022-11-18T06:20:48.418Z,5.67
2022-11-18T06:23:39.543Z,5.70
2022-11-18T06:26:30.081Z,5.98
2022-11-18T06:29:25.998Z,5.98
2022-11-18T06:32:15.926Z,6.15
2022-11-18T06:35:03.702Z,6.27
2022-11-18T06:37:51.495Z,6.47
2022-11-18T06:40:39.080Z,6.33
2022-11-18T06:43:39.122Z,6.54
2022-11-18T06:46:45.433Z,6.62
2022-11-18T06:49:33.373Z,6.80
2022-11-18T06:52:22.864Z,6.85
2022-11-18T06:55:10.597Z,6.93
2022-11-18T06:57:58.281Z,7.00
2022-11-18T07:00:45.973Z,7.16
2022-11-18T07:03:33.938Z,7.50
2022-11-18T07:06:25.781Z,7.50
2022-11-18T07:09:13.488Z,7.65
2022-11-18T07:12:01.727Z,7.83
2022-11-18T07:14:49.475Z,8.01
2022-11-18T07:17:37.322Z,8.27
2022-11-18T07:20:25.055Z,8.45
2022-11-18T07:23:12.914Z,8.96
2022-11-18T07:26:01.215Z,9.34
2022-11-18T07:28:49.358Z,10.18
2022-11-18T07:31:39.258Z,10.83
2022-11-18T07:34:26.905Z,11.26
2022-11-18T07:37:14.614Z,11.51
2022-11-18T07:40:02.431Z,12.01
2022-11-18T07:42:50.134Z,12.05
2022-11-18T07:45:44.036Z,12.48
2022-11-18T07:48:31.726Z,12.49
2022-11-18T07:51:22.148Z,12.90
2022-11-18T07:54:14.485Z,13.06
2022-11-18T07:57:02.209Z,13.01
2022-11-18T07:59:49.862Z,13.03
2022-11-18T08:02:37.698Z,13.57
2022-11-18T08:05:25.736Z,13.61
2022-11-18T08:08:16.424Z,13.69
2022-11-18T08:11:07.700Z,14.15
2022-11-18T08:13:55.508Z,14.58
2022-11-18T08:16:43.397Z,14.51
2022-11-18T08:19:31.084Z,14.63
2022-11-18T08:22:20.926Z,14.77
2022-11-18T08:25:09.387Z,15.01
2022-11-18T08:27:57.113Z,15.08
2022-11-18T08:30:44.839Z,15.41
2022-11-18T08:33:32.516Z,16.31
2022-11-18T08:36:23.060Z,16.59
2022-11-18T08:39:11.988Z,17.05
2022-11-18T08:41:59.844Z,17.14
2022-11-18T08:44:47.439Z,16.70
2022-11-18T08:47:36.000Z,16.66
2022-11-18T08:50:23.615Z,16.98
2022-11-18T08:53:11.292Z,17.56
2022-11-18T08:56:00.643Z,17.38
2022-11-18T08:58:48.807Z,17.16
2022-11-18T09:01:42.184Z,17.12
2022-11-18T09:04:30.235Z,17.52
2022-11-18T09:07:19.446Z,18.12
2022-11-18T09:10:07.735Z,18.79
2022-11-18T09:13:07.104Z,18.89
2022-11-18T09:16:04.500Z,19.16
2022-11-18T09:18:53.030Z,19.40
2022-11-18T09:21:41.115Z,18.72
2022-11-18T09:24:28.795Z,18.31
2022-11-18T09:27:17.567Z,18.02
2022-11-18T09:30:06.564Z,18.01
2022-11-18T09:32:54.232Z,18.07
2022-11-18T09:35:45.362Z,18.38
2022-11-18T09:38:33.374Z,18.29
2022-11-18T09:41:47.032Z,18.22
2022-11-18T09:45:13.149Z,18.17
2022-11-18T09:48:12.390Z,17.95
2022-11-18T09:51:00.744Z,17.78
2022-11-18T09:53:48.483Z,17.80
2022-11-18T09:56:36.376Z,17.84
2022-11-18T09:59:28.076Z,17.97
2022-11-18T10:02:42.209Z,17.86
2022-11-18T10:05:33.507Z,17.98
2022-11-18T10:08:24.191Z,17.77
2022-11-18T10:11:19.293Z,17.78
2022-11-18T10:14:27.449Z,17.82
2022-11-18T10:17:38.626Z,17.93
2022-11-18T10:20:40.783Z,18.06
2022-11-18T10:23:44.592Z,18.43
2022-11-18T10:26:41.034Z,19.16
2022-11-18T10:29:28.768Z,19.37
2022-11-18T10:32:18.603Z,19.96
2022-11-18T10:35:24.878Z,19.62
2022-11-18T10:38:15.544Z,19.30
2022-11-18T10:41:07.031Z,19.18
2022-11-18T10:43:56.531Z,19.38
2022-11-18T10:46:44.213Z,19.30
2022-11-18T10:49:39.008Z,19.91
2022-11-18T10:52:32.475Z,19.81
2022-11-18T10:55:21.774Z,19.33
2022-11-18T10:58:16.361Z,18.88
2022-11-18T11:01:16.495Z,18.72
2022-11-18T11:04:22.763Z,18.77
2022-11-18T11:07:22.474Z,19.28
2022-11-18T11:10:16.431Z,19.21
2022-11-18T11:13:13.624Z,18.94
2022-11-18T11:16:05.209Z,18.75
2022-11-18T11:19:00.365Z,18.69
2022-11-18T11:21:48.028Z,18.79
2022-11-18T11:24:35.899Z,18.64
2022-11-18T11:31:13.152Z,18.91
2022-11-18T11:34:12.238Z,19.19
2022-11-18T11:37:13.273Z,19.68
2022-11-18T11:40:00.866Z,19.82
2022-11-18T11:43:06.573Z,20.05
2022-11-18T11:46:19.552Z,20.30
2022-11-18T11:49:29.978Z,20.34
2022-11-18T11:52:30.000Z,20.40
2022-11-18T11:55:32.404Z,20.31
2022-11-18T11:58:30.165Z,20.10
2022-11-18T12:01:43.821Z,20.10
2022-11-18T12:04:51.082Z,19.95
2022-11-18T12:08:03.605Z,19.76
2022-11-18T12:10:58.615Z,19.78
2022-11-18T12:14:05.371Z,19.85
2022-11-18T12:17:00.400Z,19.96
2022-11-18T12:19:48.221Z,20.03
2022-11-18T12:23:24.423Z,20.25
2022-11-18T12:26:12.350Z,20.19
2022-11-18T12:29:20.021Z,20.31
2022-11-18T12:32:28.939Z,20.06
2022-11-18T12:35:16.892Z,19.83
2022-11-18T12:38:04.725Z,19.70
2022-11-18T12:40:53.267Z,19.54
2022-11-18T12:44:01.484Z,19.57
2022-11-18T12:46:50.562Z,19.45
2022-11-18T12:49:38.209Z,19.48
2022-11-18T12:52:31.700Z,19.42
2022-11-18T12:55:25.707Z,19.31
2022-11-18T12:58:27.006Z,19.15
2022-11-18T13:01:19.242Z,19.10
2022-11-18T13:04:14.812Z,19.01
2022-11-18T13:07:04.283Z,19.09
2022-11-18T13:09:52.106Z,19.21
2022-11-18T13:12:40.512Z,19.11
2022-11-18T13:15:46.645Z,19.02
2022-11-18T13:18:34.878Z,18.92
2022-11-18T13:21:43.659Z,18.72
2022-11-18T13:24:31.379Z,18.69
2022-11-18T13:27:26.212Z,18.59
2022-11-18T13:30:15.415Z,18.51
2022-11-18T13:33:04.061Z,18.53
2022-11-18T13:35:51.848Z,18.43
2022-11-18T13:38:41.701Z,18.36
2022-11-18T13:41:34.809Z,18.44
2022-11-18T13:44:26.008Z,18.15
2022-11-18T13:47:29.093Z,18.18
2022-11-18T13:50:37.669Z,17.99
2022-11-18T13:53:30.102Z,18.25
2022-11-18T13:56:23.805Z,17.77
2022-11-18T13:59:24.090Z,17.93
2022-11-18T14:02:14.131Z,17.78
2022-11-18T14:05:02.128Z,17.55
2022-11-18T14:08:23.336Z,17.46
2022-11-18T14:11:11.401Z,17.28
2022-11-18T14:14:00.068Z,17.31
2022-11-18T14:16:47.919Z,17.14
2022-11-18T14:19:37.024Z,16.81
2022-11-18T14:22:27.272Z,17.17
2022-11-18T14:25:17.256Z,17.12
2022-11-18T14:28:19.904Z,16.87
2022-11-18T14:31:13.550Z,16.86
2022-11-18T14:34:25.111Z,16.67
2022-11-18T14:37:14.917Z,16.44
2022-11-18T14:40:02.691Z,16.39
2022-11-18T14:42:50.467Z,16.33
2022-11-18T14:45:39.029Z,16.21
2022-11-18T14:48:35.538Z,16.06
2022-11-18T14:51:31.034Z,15.93
2022-11-18T14:54:26.479Z,15.86
2022-11-18T14:57:19.535Z,15.80
2022-11-18T15:00:08.144Z,15.80
2022-11-18T15:02:56.091Z,15.57
2022-11-18T15:05:44.187Z,15.67
2022-11-18T15:08:32.232Z,15.48
2022-11-18T15:11:20.687Z,15.49
2022-11-18T15:14:08.559Z,16.15
2022-11-18T15:16:56.386Z,15.89
2022-11-18T15:19:44.088Z,15.57
2022-11-18T15:22:31.778Z,15.46
2022-11-18T15:25:20.618Z,15.39
2022-11-18T15:28:11.059Z,15.21
2022-11-18T15:30:59.016Z,15.17
2022-11-18T15:33:47.522Z,15.07
2022-11-18T15:36:35.204Z,14.89
2022-11-18T15:39:26.715Z,14.68
2022-11-18T15:42:16.942Z,14.56
2022-11-18T15:45:08.513Z,14.33
2022-11-18T15:47:56.264Z,14.25
2022-11-18T15:50:43.975Z,14.16
2022-11-18T15:53:34.147Z,13.93
2022-11-18T15:56:26.389Z,13.83
2022-11-18T15:59:15.368Z,13.75
2022-11-18T16:02:03.008Z,13.49
2022-11-18T16:04:50.715Z,13.47
2022-11-18T16:07:41.432Z,13.54
2022-11-18T16:10:47.736Z,13.49
2022-11-18T16:13:39.967Z,13.25
2022-11-18T16:16:28.466Z,13.24
2022-11-18T16:19:18.188Z,13.18
2022-11-18T16:22:06.886Z,13.05
2022-11-18T16:24:54.492Z,13.11
2022-11-18T16:27:42.213Z,13.09
2022-11-18T16:30:48.386Z,13.05
2022-11-18T16:33:39.453Z,13.09
2022-11-18T16:36:27.964Z,13.05
2022-11-18T16:39:18.606Z,12.60
2022-11-18T16:42:08.662Z,12.91
2022-11-18T16:44:56.705Z,13.12
2022-11-18T16:47:44.951Z,13.17
2022-11-18T16:50:32.755Z,13.11
2022-11-18T16:53:20.345Z,13.03
2022-11-18T16:56:08.142Z,12.82
2022-11-18T16:59:01.262Z,12.51
2022-11-18T17:01:53.989Z,12.38
2022-11-18T17:04:41.716Z,12.06
2022-11-18T17:07:33.920Z,12.06
2022-11-18T17:10:24.629Z,11.85
2022-11-18T17:13:12.438Z,11.86
2022-11-18T17:16:08.056Z,11.70
2022-11-18T17:18:57.774Z,11.47
2022-11-18T17:21:49.289Z,11.58
2022-11-18T17:24:37.184Z,11.61
2022-11-18T17:27:25.041Z,11.50
2022-11-18T17:30:13.457Z,11.66
2022-11-18T17:33:04.104Z,11.61
2022-11-18T17:36:11.731Z,11.48
2022-11-18T17:39:00.810Z,11.58
2022-11-18T17:42:07.054Z,11.46
2022-11-18T17:44:54.819Z,11.39
2022-11-18T17:47:42.485Z,11.39
2022-11-18T17:50:30.201Z,11.38
2022-11-18T17:53:19.138Z,11.33
2022-11-18T17:56:09.928Z,11.34
2022-11-18T17:58:57.777Z,11.27
2022-11-18T18:01:46.364Z,11.23
2022-11-18T18:04:34.137Z,11.13
2022-11-18T18:07:21.913Z,11.15
2022-11-18T18:10:10.034Z,11.16
2022-11-18T18:13:16.255Z,11.11
2022-11-18T18:16:04.002Z,11.12
2022-11-18T18:18:52.831Z,11.02
2022-11-18T18:21:40.980Z,11.02
2022-11-18T18:24:28.740Z,11.06
2022-11-18T18:27:16.522Z,10.98
2022-11-18T18:30:07.348Z,10.85
2022-11-18T18:32:55.090Z,10.39
2022-11-18T18:35:42.736Z,10.70
2022-11-18T18:38:33.345Z,10.73
2022-11-18T18:41:22.615Z,10.73
2022-11-18T18:44:18.249Z,10.70
2022-11-18T18:47:06.260Z,10.82
2022-11-18T18:49:56.946Z,10.77
2022-11-18T18:52:48.203Z,10.89
2022-11-18T18:55:39.335Z,10.91
2022-11-18T18:58:33.809Z,10.93
2022-11-18T19:01:21.872Z,10.88
2022-11-18T19:04:13.391Z,10.93
2022-11-18T19:07:01.190Z,10.81
2022-11-18T19:09:49.128Z,10.88
2022-11-18T19:12:52.209Z,10.81
2022-11-18T19:15:39.914Z,10.63
2022-11-18T19:18:29.952Z,10.64
2022-11-18T19:21:23.102Z,10.71
2022-11-18T19:24:34.915Z,10.75
2022-11-18T19:27:26.464Z,10.93
2022-11-18T19:30:23.382Z,10.72
2022-11-18T19:33:13.248Z,10.73
2022-11-18T19:36:05.709Z,10.62
2022-11-18T19:38:53.395Z,10.60
2022-11-18T19:41:41.159Z,10.65
2022-11-18T19:44:28.889Z,10.57
2022-11-18T19:47:16.775Z,10.46
2022-11-18T19:50:06.037Z,10.56
2022-11-18T19:52:53.721Z,10.59
2022-11-18T19:55:41.386Z,10.64
2022-11-18T19:58:32.527Z,10.62
2022-11-18T20:01:28.708Z,10.63
2022-11-18T20:04:16.554Z,10.71
2022-11-18T20:07:04.492Z,10.67
2022-11-18T20:09:52.211Z,10.56
2022-11-18T20:12:40.019Z,10.69
2022-11-18T20:15:27.699Z,10.62
2022-11-18T20:18:15.565Z,10.70
2022-11-18T20:21:08.901Z,10.72
2022-11-18T20:24:04.774Z,10.72
2022-11-18T20:26:52.465Z,10.69
2022-11-18T20:29:40.232Z,10.79
2022-11-18T20:32:27.924Z,10.76
2022-11-18T20:35:15.653Z,10.66
2022-11-18T20:38:03.401Z,10.69
2022-11-18T20:40:51.150Z,10.64
2022-11-18T20:43:40.783Z,10.70
2022-11-18T20:46:29.169Z,10.61
2022-11-18T20:49:17.050Z,10.72
2022-11-18T20:52:05.077Z,10.73
2022-11-18T20:54:52.750Z,10.75
2022-11-18T20:57:40.440Z,10.75
2022-11-18T21:00:28.054Z,10.75
2022-11-18T21:03:15.870Z,10.70
2022-11-18T21:06:14.126Z,10.75
2022-11-18T21:09:05.058Z,10.85
2022-11-18T21:11:52.716Z,10.72
2022-11-18T21:14:41.045Z,10.76
2022-11-18T21:17:28.761Z,10.80
2022-11-18T21:20:35.653Z,10.76
2022-11-18T21:23:23.695Z,10.73
2022-11-18T21:26:13.436Z,10.83
2022-11-18T21:29:03.447Z,10.78
2022-11-18T21:31:51.601Z,10.70
2022-11-18T21:34:39.412Z,10.90
2022-11-18T21:37:27.071Z,10.84
2022-11-18T21:40:14.790Z,10.94
2022-11-18T21:43:02.435Z,11.01
2022-11-18T21:45:50.059Z,10.97
2022-11-18T21:48:38.536Z,11.04
2022-11-18T21:51:26.197Z,10.96
2022-11-18T21:54:16.163Z,10.96
2022-11-18T21:57:03.987Z,10.89
2022-11-18T21:59:51.666Z,10.89
2022-11-18T22:02:39.531Z,10.73
2022-11-18T22:05:27.474Z,10.68
2022-11-18T22:08:15.154Z,10.78
2022-11-18T22:11:03.967Z,10.66
2022-11-18T22:13:53.207Z,10.59
2022-11-18T22:16:40.754Z,10.62
2022-11-18T22:23:21.798Z,10.70
2022-11-18T22:26:17.826Z,10.72
2022-11-18T22:29:05.549Z,10.53
2022-11-18T22:31:53.484Z,10.64
2022-11-18T22:34:41.078Z,10.72
2022-11-18T22:37:28.691Z,10.69
2022-11-18T22:40:16.645Z,10.61
2022-11-18T22:43:04.386Z,10.72
2022-11-18T22:46:01.211Z,10.63
2022-11-18T22:48:48.890Z,10.63
2022-11-18T22:51:38.152Z,10.62
2022-11-18T22:54:41.430Z,10.68
2022-11-18T22:57:34.401Z,10.50
2022-11-18T23:00:22.129Z,10.59
2022-11-18T23:03:09.789Z,10.57
2022-11-18T23:05:58.143Z,10.56
2022-11-18T23:08:45.907Z,10.55
2022-11-18T23:11:52.160Z,10.51
2022-11-18T23:14:42.855Z,10.54
2022-11-18T23:17:39.379Z,10.61
2022-11-18T23:20:27.023Z,10.54
2022-11-18T23:23:14.657Z,10.61
2022-11-18T23:26:08.077Z,10.50
2022-11-18T23:28:56.130Z,10.50
2022-11-18T23:31:45.187Z,10.42
2022-11-18T23:34:32.918Z,10.45
2022-11-18T23:37:20.601Z,10.29
2022-11-18T23:40:08.818Z,10.35
2022-11-18T23:42:56.559Z,10.31
2022-11-18T23:45:44.291Z,10.30
2022-11-18T23:48:37.553Z,10.42
2022-11-18T23:51:25.934Z,10.44
2022-11-18T23:54:13.653Z,10.50
2022-11-18T23:57:01.575Z,10.38
2022-11-18T23:59:49.213Z,10.45
